Pagina principale
METAR-TAF:

METAR-TAF

Aeroporti :

Aeroporto di Cefalonia

Cefalonia, Grecia

latitudine: 38-07N, longitudine: 020-30E, altezza: 19 m

Osservazione

Il bollettino è stato emesso 26 minuti fa, alle 15:50 UTC
Vento 11 kt da nord/nord-ovest
Temperature 31°C
Umidità 59%
Pressione 1012 hPa
Visibilità 10 km o più
nessuna nube inferiore a 1500 m e nessun cumulonembo

METAR: LGKF 181550Z 33011KT CAVOK 31/22 Q1012

Ora: 19:16 (16:16 UTC)

Previsione

Il bollettino è stato emesso 2 ore e 16 minuti fa, alle 14:00 UTC
Previsione valida dal 18 alle 15 UTC al 18 alle 24 UTC
Vento 10 kt da nord-ovest
Visibilità 10 km o più
Poco nuvoloso ad un'altezza di 1800 ft

TAF: LGKF 181400Z 1815/1824 32010KT 9999 FEW018

Osservazioni e previsioni meteorologiche di più di 4000 aeroporti (messaggi METAR e TAF).

Le stazioni disponibili sono rappresentate dai dischi gialli e rossi sulla carta.

Puntare il mouse per vedere il nome della stazione.

Clicca sopra per visualizzare le osservazioni e previsioni meteorologiche.

Per cambiare la mappa : fare clic sui pulsanti verdi con una croce nera per ingrandire, il pulsante verde con un trattino per diminuire, o sulla freccia verde per le mappe adiacenti.


METAR-TAF: